createdAt,value
2019-01-14T00:00:08.536Z,970.86
2019-01-14T00:01:08.575Z,970.97
2019-01-14T00:02:14.441Z,970.81
2019-01-14T00:03:09.506Z,970.85
2019-01-14T00:04:08.845Z,970.87
2019-01-14T00:05:09.506Z,970.93
2019-01-14T00:06:30.506Z,970.90
2019-01-14T00:07:10.007Z,970.87
2019-01-14T00:08:14.006Z,970.87
2019-01-14T00:09:10.009Z,970.93
2019-01-14T00:10:10.006Z,970.94
2019-01-14T00:11:10.508Z,970.99
2019-01-14T00:13:45.345Z,970.95
2019-01-14T00:14:41.855Z,970.97
2019-01-14T00:16:03.355Z,971.00
2019-01-14T00:17:03.355Z,971.00
2019-01-14T00:17:41.702Z,970.99
2019-01-14T00:18:43.331Z,971.00
2019-01-14T00:19:46.355Z,970.99
2019-01-14T00:20:42.855Z,971.00
2019-01-14T00:21:42.853Z,971.00
2019-01-14T00:24:17.452Z,970.96
2019-01-14T00:25:18.459Z,971.02
2019-01-14T00:26:17.459Z,971.05
2019-01-14T00:27:15.486Z,971.06
2019-01-14T00:28:17.965Z,971.04
2019-01-14T00:29:36.956Z,971.09
2019-01-14T00:30:17.961Z,971.08
2019-01-14T00:31:41.894Z,971.13
2019-01-14T00:32:18.458Z,971.23
2019-01-14T00:34:48.178Z,971.19
2019-01-14T00:36:08.498Z,971.23
2019-01-14T00:36:51.044Z,971.36
2019-01-14T00:37:48.187Z,971.25
2019-01-14T00:39:08.753Z,971.19
2019-01-14T00:40:08.837Z,971.21
2019-01-14T00:40:48.686Z,971.20
2019-01-14T00:42:12.686Z,971.15
2019-01-14T00:42:48.692Z,971.34
2019-01-14T00:45:20.416Z,971.35
2019-01-14T00:46:34.421Z,971.39
2019-01-14T00:47:24.421Z,971.39
2019-01-14T00:48:22.922Z,971.39
2019-01-14T00:49:20.920Z,971.46
2019-01-14T00:50:20.931Z,971.43
2019-01-14T00:51:20.924Z,971.57
2019-01-14T00:52:22.356Z,971.47
2019-01-14T00:53:25.420Z,971.44
2019-01-14T00:54:21.427Z,971.34
2019-01-14T00:55:21.421Z,971.35
2019-01-14T00:56:21.920Z,971.39
2019-01-14T00:57:21.922Z,971.34
2019-01-14T00:58:23.389Z,971.41
2019-01-14T00:59:25.420Z,971.35
2019-01-14T01:00:21.509Z,971.38
2019-01-14T01:01:22.422Z,971.50
2019-01-14T01:02:22.418Z,971.30
2019-01-14T01:03:22.421Z,971.37
2019-01-14T01:04:26.422Z,971.40
2019-01-14T01:05:22.919Z,971.38
2019-01-14T01:06:24.722Z,971.44
2019-01-14T01:07:22.923Z,971.44
2019-01-14T01:08:25.422Z,971.44
2019-01-14T01:09:23.421Z,971.45
2019-01-14T01:10:26.422Z,971.48
2019-01-14T01:11:58.419Z,971.51
2019-01-14T01:12:23.920Z,971.50
2019-01-14T01:13:23.920Z,971.56
2019-01-14T01:14:23.927Z,971.58
2019-01-14T01:15:27.927Z,971.66
2019-01-14T01:16:30.429Z,971.68
2019-01-14T01:17:23.638Z,971.74
2019-01-14T01:18:23.729Z,971.66
2019-01-14T01:19:45.422Z,971.72
2019-01-14T01:20:27.919Z,971.73
2019-01-14T01:21:38.933Z,971.83
2019-01-14T01:22:24.920Z,971.85
2019-01-14T01:23:24.919Z,971.88
2019-01-14T01:24:24.919Z,971.83
2019-01-14T01:25:28.919Z,971.89
2019-01-14T01:26:26.391Z,971.98
2019-01-14T01:27:27.420Z,971.90
2019-01-14T01:28:24.888Z,971.89
2019-01-14T01:29:25.917Z,971.86
2019-01-14T01:30:49.805Z,971.95
2019-01-14T01:32:57.268Z,972.04
2019-01-14T01:33:57.266Z,971.99
2019-01-14T01:34:56.737Z,972.06
2019-01-14T01:36:01.740Z,972.00
2019-01-14T01:36:56.956Z,971.98
2019-01-14T01:37:57.043Z,972.16
2019-01-14T01:38:57.133Z,972.22
2019-01-14T01:39:57.221Z,972.20
2019-01-14T01:41:02.347Z,972.31
2019-01-14T01:41:57.353Z,972.24
2019-01-14T01:42:57.442Z,972.30
2019-01-14T01:43:57.529Z,972.25
2019-01-14T01:44:57.622Z,972.23
2019-01-14T01:45:57.719Z,972.33
2019-01-14T01:47:04.266Z,972.32
2019-01-14T01:47:57.855Z,972.35
2019-01-14T01:48:57.947Z,972.28
2019-01-14T01:49:58.034Z,972.35
2019-01-14T01:50:58.125Z,972.36
2019-01-14T01:51:58.226Z,972.44
2019-01-14T01:54:34.934Z,972.42
2019-01-14T01:55:34.943Z,972.39
2019-01-14T01:56:35.903Z,972.51
2019-01-14T01:57:35.441Z,972.48
2019-01-14T01:58:37.942Z,972.61
2019-01-14T01:59:35.445Z,972.65
2019-01-14T02:00:35.467Z,972.56
2019-01-14T02:01:37.874Z,972.64
2019-01-14T02:02:37.940Z,972.69
2019-01-14T02:03:38.157Z,972.79
2019-01-14T02:04:35.941Z,972.67
2019-01-14T02:05:35.939Z,972.82
2019-01-14T02:06:39.477Z,972.73
2019-01-14T02:07:35.651Z,972.82
2019-01-14T02:08:39.299Z,972.80
2019-01-14T02:09:36.438Z,972.79
2019-01-14T02:10:36.999Z,972.80
2019-01-14T02:11:36.940Z,972.89
2019-01-14T02:12:36.939Z,972.77
2019-01-14T02:13:40.939Z,972.79
2019-01-14T02:14:37.439Z,972.74
2019-01-14T02:15:37.439Z,972.82
2019-01-14T02:16:37.439Z,972.94
2019-01-14T02:17:36.941Z,972.93
2019-01-14T02:18:37.034Z,972.84
2019-01-14T02:20:01.939Z,972.85
2019-01-14T02:20:37.157Z,972.90
2019-01-14T02:21:37.939Z,972.97
2019-01-14T02:22:37.466Z,972.98
2019-01-14T02:23:37.492Z,973.10
2019-01-14T02:24:48.435Z,973.10
2019-01-14T02:25:37.655Z,973.17
2019-01-14T02:26:39.373Z,973.23
2019-01-14T02:27:37.836Z,973.32
2019-01-14T02:28:37.924Z,973.32
2019-01-14T02:29:38.018Z,973.20
2019-01-14T02:31:03.439Z,973.26
2019-01-14T02:31:38.161Z,973.24
2019-01-14T02:32:38.245Z,973.38
2019-01-14T02:33:38.938Z,973.37
2019-01-14T02:34:38.403Z,973.44
2019-01-14T02:35:39.440Z,973.46
2019-01-14T02:36:57.439Z,973.38
2019-01-14T02:37:39.437Z,973.59
2019-01-14T02:38:40.915Z,973.53
2019-01-14T02:39:39.438Z,973.62
2019-01-14T02:41:00.942Z,973.60
2019-01-14T02:41:44.872Z,973.56
2019-01-14T02:43:04.446Z,973.83
2019-01-14T02:43:39.958Z,973.70
2019-01-14T02:45:07.438Z,973.77
2019-01-14T02:45:41.871Z,973.81
2019-01-14T02:46:40.436Z,973.72
2019-01-14T02:47:43.712Z,973.65
2019-01-14T02:48:42.397Z,973.69
2019-01-14T02:50:03.398Z,973.80
2019-01-14T02:50:40.936Z,973.78
2019-01-14T02:51:40.938Z,973.84
2019-01-14T02:53:05.936Z,973.72
2019-01-14T02:54:02.438Z,973.86
2019-01-14T02:55:02.437Z,973.92
2019-01-14T02:56:02.436Z,973.87
2019-01-14T02:57:02.939Z,973.88
2019-01-14T02:57:41.939Z,973.93
2019-01-14T02:58:45.436Z,973.98
2019-01-14T02:59:43.408Z,973.96
2019-01-14T03:01:09.435Z,974.00
2019-01-14T03:02:03.438Z,973.97
2019-01-14T03:02:43.914Z,974.02
2019-01-14T03:03:42.438Z,974.06
2019-01-14T03:04:46.436Z,974.01
2019-01-14T03:05:56.871Z,974.05
2019-01-14T03:07:03.945Z,974.10
2019-01-14T03:07:42.938Z,974.07
2019-01-14T03:09:04.448Z,974.10
2019-01-14T03:10:15.379Z,974.12
2019-01-14T03:10:49.432Z,974.18
2019-01-14T03:11:43.436Z,974.18
2019-01-14T03:12:43.442Z,974.25
2019-01-14T03:13:49.939Z,974.29
2019-01-14T03:14:44.911Z,974.36
2019-01-14T03:15:47.935Z,974.40
2019-01-14T03:16:58.895Z,974.46
2019-01-14T03:17:43.502Z,974.50
2019-01-14T03:18:58.436Z,974.46
2019-01-14T03:19:58.452Z,974.51
2019-01-14T03:20:45.870Z,974.46
2019-01-14T03:21:47.972Z,974.45
2019-01-14T03:22:59.390Z,974.52
2019-01-14T03:23:58.943Z,974.50
2019-01-14T03:24:46.411Z,974.49
2019-01-14T03:25:58.935Z,974.54
2019-01-14T03:26:44.937Z,974.60
2019-01-14T03:27:48.440Z,974.60
2019-01-14T03:28:59.435Z,974.55
2019-01-14T03:29:47.434Z,974.58
2019-01-14T03:30:47.476Z,974.65
2019-01-14T03:31:59.434Z,974.68
2019-01-14T03:32:48.092Z,974.65
2019-01-14T03:33:47.935Z,974.62
2019-01-14T03:34:45.934Z,974.61
2019-01-14T03:35:45.934Z,974.67
2019-01-14T03:36:48.438Z,974.71
2019-01-14T03:37:49.263Z,974.71
2019-01-14T03:38:48.441Z,974.70
2019-01-14T03:39:47.869Z,974.74
2019-01-14T03:40:46.434Z,974.82
2019-01-14T03:42:00.935Z,974.82
2019-01-14T03:42:46.155Z,974.91
2019-01-14T03:43:50.936Z,974.87
2019-01-14T03:44:46.933Z,974.86
2019-01-14T03:46:09.868Z,974.93
2019-01-14T03:46:49.433Z,974.91
2019-01-14T03:48:01.434Z,974.90
2019-01-14T03:48:47.435Z,974.92
2019-01-14T03:49:50.233Z,974.99
2019-01-14T03:50:47.934Z,975.03
2019-01-14T03:51:47.936Z,975.03
2019-01-14T03:52:47.933Z,975.05
2019-01-14T03:53:47.939Z,975.10
2019-01-14T03:54:51.932Z,975.06
2019-01-14T03:55:47.645Z,975.09
2019-01-14T03:56:47.730Z,975.15
2019-01-14T03:57:47.828Z,975.21
2019-01-14T03:58:47.910Z,975.17
2019-01-14T03:59:48.004Z,975.21
2019-01-14T04:00:51.939Z,975.22
2019-01-14T04:01:48.158Z,975.30
2019-01-14T04:02:48.274Z,975.26
2019-01-14T04:03:48.337Z,975.16
2019-01-14T04:04:48.428Z,975.24
2019-01-14T04:05:59.432Z,975.31
2019-01-14T04:06:48.650Z,975.38
2019-01-14T04:07:48.737Z,975.39
2019-01-14T04:08:48.842Z,975.41
2019-01-14T04:09:48.916Z,975.45
2019-01-14T04:10:49.007Z,975.45
2019-01-14T04:11:59.433Z,975.46
2019-01-14T04:12:49.936Z,975.43
2019-01-14T04:13:49.930Z,975.51
2019-01-14T04:14:49.396Z,975.55
2019-01-14T04:15:49.484Z,975.53
2019-01-14T04:16:49.575Z,975.54
2019-01-14T04:17:54.431Z,975.56
2019-01-14T04:18:49.772Z,975.63
2019-01-14T04:19:49.866Z,975.62
2019-01-14T04:20:49.942Z,975.69
2019-01-14T04:23:24.661Z,975.62
2019-01-14T04:24:22.670Z,975.75
2019-01-14T04:25:22.670Z,975.76
2019-01-14T04:26:23.170Z,975.73
2019-01-14T04:27:22.384Z,975.73
2019-01-14T04:28:26.285Z,975.74
2019-01-14T04:29:44.171Z,975.75
2019-01-14T04:30:23.671Z,975.84
2019-01-14T04:31:23.671Z,975.88
2019-01-14T04:32:23.669Z,975.90
2019-01-14T04:33:23.674Z,975.93
2019-01-14T04:34:48.254Z,975.96
2019-01-14T04:35:38.169Z,975.90
2019-01-14T04:36:24.175Z,975.93
2019-01-14T04:37:23.511Z,975.88
2019-01-14T04:38:24.172Z,975.89
2019-01-14T04:39:24.171Z,975.92
2019-01-14T04:40:48.240Z,975.92
2019-01-14T04:41:38.669Z,975.92
2019-01-14T04:42:25.612Z,976.01
2019-01-14T04:43:31.604Z,976.00
2019-01-14T04:44:24.670Z,975.95
2019-01-14T04:45:39.169Z,975.99
2019-01-14T04:46:35.169Z,975.98
2019-01-14T04:47:28.103Z,976.00
2019-01-14T04:48:24.591Z,976.05
2019-01-14T04:49:39.670Z,976.02
2019-01-14T04:50:25.668Z,976.06
2019-01-14T04:51:25.678Z,976.04
2019-01-14T04:52:49.198Z,976.05
2019-01-14T04:53:25.672Z,976.02
2019-01-14T04:54:40.172Z,976.07
2019-01-14T04:55:26.169Z,976.16
2019-01-14T04:56:26.170Z,976.06
2019-01-14T04:57:30.102Z,976.07
2019-01-14T04:58:25.710Z,976.11
2019-01-14T05:02:33.430Z,976.03
2019-01-14T05:03:50.623Z,976.03
2019-01-14T05:04:30.432Z,976.08
2019-01-14T05:05:50.748Z,976.06
2019-01-14T05:06:31.897Z,976.04
2019-01-14T05:07:29.992Z,976.09
2019-01-14T05:08:34.436Z,976.09
2019-01-14T05:09:36.931Z,976.13
2019-01-14T05:10:30.931Z,976.07
2019-01-14T05:11:53.401Z,976.07
2019-01-14T05:12:58.441Z,976.09
2019-01-14T05:14:01.932Z,976.06
2019-01-14T05:14:58.432Z,976.04
2019-01-14T05:15:58.431Z,976.05
2019-01-14T05:16:31.431Z,976.07
2019-01-14T05:17:33.932Z,976.08
2019-01-14T05:18:37.933Z,976.07
2019-01-14T05:19:35.931Z,976.06
2019-01-14T05:20:31.931Z,976.06
2019-01-14T05:21:38.432Z,976.16
2019-01-14T05:22:32.431Z,976.23
2019-01-14T05:23:32.431Z,976.13
2019-01-14T05:24:35.931Z,976.15
2019-01-14T05:25:38.868Z,976.15
2019-01-14T05:26:33.865Z,976.13
2019-01-14T05:27:32.934Z,976.14
2019-01-14T05:28:32.931Z,976.14
2019-01-14T05:29:36.933Z,976.12
2019-01-14T05:30:33.431Z,976.17
2019-01-14T05:31:33.443Z,976.23
2019-01-14T05:32:33.430Z,976.27
2019-01-14T05:33:39.930Z,976.33
2019-01-14T05:34:39.932Z,976.39
2019-01-14T05:35:37.931Z,976.40
2019-01-14T05:36:33.935Z,976.54
2019-01-14T05:37:37.522Z,976.56
2019-01-14T05:38:34.430Z,976.61
2019-01-14T05:39:34.430Z,976.64
2019-01-14T05:40:40.432Z,976.68
2019-01-14T05:41:37.931Z,976.74
2019-01-14T05:42:38.366Z,976.76
2019-01-14T05:43:48.931Z,976.83
2019-01-14T05:44:40.868Z,976.85
2019-01-14T05:45:55.938Z,976.85
2019-01-14T05:46:38.929Z,976.82
2019-01-14T05:47:34.515Z,976.85
2019-01-14T05:50:09.239Z,976.88
2019-01-14T05:51:09.250Z,976.91
2019-01-14T05:52:10.002Z,976.98
2019-01-14T05:53:09.248Z,976.97
2019-01-14T05:54:28.748Z,976.97
2019-01-14T05:55:07.748Z,977.04
2019-01-14T05:57:43.229Z,977.01
2019-01-14T05:59:01.671Z,976.98
2019-01-14T05:59:38.697Z,977.00
2019-01-14T06:00:59.762Z,977.00
2019-01-14T06:02:02.736Z,977.05
2019-01-14T06:02:39.746Z,977.00
2019-01-14T06:03:43.236Z,977.06
2019-01-14T06:04:39.735Z,977.12
2019-01-14T06:05:40.236Z,977.10
2019-01-14T06:06:40.242Z,977.17
2019-01-14T06:07:44.889Z,977.19
2019-01-14T06:08:44.737Z,977.15
2019-01-14T06:11:34.400Z,977.24
2019-01-14T06:12:32.967Z,977.26
2019-01-14T06:13:11.436Z,977.21
2019-01-14T06:14:29.965Z,977.25
2019-01-14T06:16:58.325Z,977.27
2019-01-14T06:17:43.798Z,977.23
2019-01-14T06:20:19.350Z,977.25
2019-01-14T06:21:16.528Z,977.22
2019-01-14T06:22:16.538Z,977.24
2019-01-14T06:23:17.962Z,977.24
2019-01-14T06:24:17.028Z,977.28
2019-01-14T06:26:51.212Z,977.26
2019-01-14T06:27:51.944Z,977.23
2019-01-14T06:28:51.943Z,977.21
2019-01-14T06:30:13.443Z,977.30
2019-01-14T06:30:54.950Z,977.24
2019-01-14T06:31:52.443Z,977.28
2019-01-14T06:33:13.444Z,977.26
2019-01-14T06:34:13.949Z,977.29
2019-01-14T06:34:53.878Z,977.28
2019-01-14T06:35:56.944Z,977.32
2019-01-14T06:36:52.947Z,977.33
2019-01-14T06:38:13.515Z,977.35
2019-01-14T06:38:53.443Z,977.38
2019-01-14T06:40:28.443Z,977.42
2019-01-14T06:40:53.443Z,977.45
2019-01-14T06:41:56.943Z,977.41
2019-01-14T06:42:53.950Z,977.39
2019-01-14T06:44:14.146Z,977.38
2019-01-14T06:44:54.883Z,977.39
2019-01-14T06:45:53.953Z,977.43
2019-01-14T06:46:57.467Z,977.50
2019-01-14T06:47:53.557Z,977.48
2019-01-14T06:48:54.442Z,977.58
2019-01-14T06:50:15.445Z,977.52
2019-01-14T06:50:54.443Z,977.59
2019-01-14T06:52:00.943Z,977.63
2019-01-14T06:53:01.442Z,977.72
2019-01-14T06:53:54.950Z,977.68
2019-01-14T06:55:15.948Z,977.73
2019-01-14T06:56:01.442Z,977.77
2019-01-14T06:56:57.437Z,977.78
2019-01-14T06:57:54.784Z,977.85
2019-01-14T06:58:58.435Z,977.84
2019-01-14T07:00:16.945Z,977.89
2019-01-14T07:00:55.945Z,977.90
2019-01-14T07:01:55.947Z,977.87
2019-01-14T07:02:55.946Z,977.92
2019-01-14T07:04:00.453Z,977.90
2019-01-14T07:05:17.444Z,977.89
2019-01-14T07:05:58.442Z,977.87
2019-01-14T07:07:16.926Z,977.90
2019-01-14T07:07:59.738Z,977.91
2019-01-14T07:09:35.944Z,977.90
2019-01-14T07:11:30.302Z,977.93
2019-01-14T07:12:28.308Z,977.98
2019-01-14T07:13:28.307Z,978.05
2019-01-14T07:14:31.814Z,978.00
2019-01-14T07:17:00.162Z,978.07
2019-01-14T07:18:14.167Z,978.12
2019-01-14T07:19:00.167Z,978.11
2019-01-14T07:20:03.674Z,978.12
2019-01-14T07:21:00.670Z,978.07
2019-01-14T07:23:32.649Z,978.15
2019-01-14T07:24:38.648Z,978.10
2019-01-14T07:25:35.540Z,978.11
2019-01-14T07:26:34.646Z,978.12
2019-01-14T07:27:35.145Z,978.13
2019-01-14T07:28:33.146Z,978.11
2019-01-14T07:31:06.616Z,978.20
2019-01-14T07:32:04.621Z,978.20
2019-01-14T07:33:25.623Z,978.20
2019-01-14T07:34:05.131Z,978.20
2019-01-14T07:35:12.561Z,978.28
2019-01-14T07:36:09.124Z,978.28
2019-01-14T07:37:05.123Z,978.31
2019-01-14T07:39:36.846Z,978.36
2019-01-14T07:40:59.856Z,978.36
2019-01-14T07:41:42.850Z,978.30
2019-01-14T07:42:37.350Z,978.30
2019-01-14T07:43:58.350Z,978.33
2019-01-14T07:44:37.357Z,978.35
2019-01-14T07:45:37.358Z,978.32
2019-01-14T07:46:36.957Z,978.29
2019-01-14T07:49:13.504Z,978.32
2019-01-14T07:50:13.513Z,978.33
2019-01-14T07:51:13.514Z,978.35
2019-01-14T07:52:28.013Z,978.35
2019-01-14T07:53:17.043Z,978.27
2019-01-14T07:54:13.349Z,978.30
2019-01-14T07:55:14.021Z,978.37
2019-01-14T07:56:14.013Z,978.40
2019-01-14T07:57:14.514Z,978.45
2019-01-14T07:59:59.294Z,978.57
2019-01-14T08:01:11.379Z,978.59
2019-01-14T08:01:50.301Z,978.60
2019-01-14T08:02:50.310Z,978.57
2019-01-14T08:04:14.883Z,978.57
2019-01-14T08:07:55.573Z,978.65
2019-01-14T08:09:18.090Z,978.68
2019-01-14T08:09:53.589Z,978.66
2019-01-14T08:11:18.026Z,978.63
2019-01-14T08:11:53.301Z,978.62
2019-01-14T08:12:56.063Z,978.66
2019-01-14T08:14:17.930Z,978.68
2019-01-14T08:16:25.781Z,978.62
2019-01-14T08:17:25.797Z,978.65
2019-01-14T08:18:25.786Z,978.70
2019-01-14T08:19:29.786Z,978.76
2019-01-14T08:20:26.285Z,978.81
2019-01-14T08:21:26.295Z,978.81
2019-01-14T08:22:27.765Z,978.85
2019-01-14T08:23:25.861Z,978.81
2019-01-14T08:24:26.792Z,978.87
2019-01-14T08:26:06.285Z,978.84
2019-01-14T08:30:11.715Z,978.84
2019-01-14T08:30:53.257Z,978.92
2019-01-14T08:31:49.261Z,978.98
2019-01-14T08:32:48.858Z,978.97
2019-01-14T08:34:15.191Z,978.99
2019-01-14T08:34:51.757Z,979.00
2019-01-14T08:35:58.190Z,979.05
2019-01-14T08:37:14.257Z,979.07
2019-01-14T08:39:21.610Z,979.10
2019-01-14T08:40:21.617Z,979.09
2019-01-14T08:41:22.115Z,979.08
2019-01-14T08:42:27.053Z,979.12
2019-01-14T08:43:22.116Z,979.12
2019-01-14T08:44:21.510Z,979.07
2019-01-14T08:46:53.676Z,979.15
2019-01-14T08:47:57.683Z,979.13
2019-01-14T08:48:53.686Z,979.13
2019-01-14T08:50:15.183Z,979.06
2019-01-14T08:50:54.187Z,979.09
2019-01-14T08:52:15.182Z,979.11
2019-01-14T08:52:54.183Z,979.10
2019-01-14T08:54:19.685Z,979.15
2019-01-14T08:54:56.137Z,979.07
2019-01-14T08:58:01.621Z,979.03
2019-01-14T08:58:26.626Z,979.04
2019-01-14T08:59:29.371Z,979.02
2019-01-14T09:00:28.084Z,978.99
2019-01-14T09:01:41.131Z,978.98
2019-01-14T09:02:27.114Z,978.96
2019-01-14T09:04:02.122Z,979.04
2019-01-14T09:04:57.614Z,978.95
2019-01-14T09:05:27.134Z,979.01
2019-01-14T09:06:28.057Z,979.01
2019-01-14T09:07:27.618Z,979.03
2019-01-14T09:08:28.823Z,979.04
2019-01-14T09:09:52.002Z,979.06
2019-01-14T09:10:48.618Z,979.11
2019-01-14T09:13:01.295Z,979.08
2019-01-14T09:13:59.301Z,979.08
2019-01-14T09:15:05.295Z,979.13
2019-01-14T09:15:59.361Z,979.07
2019-01-14T09:16:59.861Z,979.02
2019-01-14T09:18:02.947Z,979.07
2019-01-14T09:20:34.971Z,979.08
2019-01-14T09:21:30.714Z,979.07
2019-01-14T09:22:30.806Z,979.17
2019-01-14T09:23:52.850Z,979.18
2019-01-14T09:24:37.838Z,979.14
2019-01-14T09:25:55.423Z,979.18
2019-01-14T09:26:31.839Z,979.13
2019-01-14T09:27:36.271Z,979.15
2019-01-14T09:28:32.772Z,979.15
2019-01-14T09:29:52.395Z,979.15
2019-01-14T09:30:57.337Z,979.17
2019-01-14T09:31:53.337Z,979.14
2019-01-14T09:32:53.338Z,979.15
2019-01-14T09:33:32.341Z,979.16
2019-01-14T09:36:07.560Z,979.20
2019-01-14T09:37:10.066Z,979.25
2019-01-14T09:38:03.530Z,979.26
2019-01-14T09:40:35.751Z,979.22
2019-01-14T09:41:38.453Z,979.24
2019-01-14T09:42:36.259Z,979.25
2019-01-14T09:45:27.769Z,979.26
2019-01-14T09:46:08.707Z,979.25
2019-01-14T09:50:35.388Z,979.26
2019-01-14T09:51:34.586Z,979.24
2019-01-14T09:52:17.899Z,979.17
2019-01-14T09:53:35.397Z,979.17
2019-01-14T09:54:14.398Z,979.18
2019-01-14T09:58:42.070Z,979.27
2019-01-14T09:59:17.575Z,979.30
2019-01-14T10:00:53.076Z,979.32
2019-01-14T10:01:18.075Z,979.40
2019-01-14T10:02:18.076Z,979.47
2019-01-14T10:03:43.076Z,979.59
2019-01-14T10:04:20.588Z,979.51
2019-01-14T10:05:18.594Z,979.56
2019-01-14T10:06:45.574Z,979.60
2019-01-14T10:07:18.579Z,979.64
2019-01-14T10:08:34.021Z,979.57
2019-01-14T10:09:22.076Z,979.56
2019-01-14T10:14:58.138Z,979.68
2019-01-14T10:15:54.210Z,979.72
2019-01-14T10:17:16.046Z,979.71
2019-01-14T10:17:54.390Z,979.80
2019-01-14T10:18:55.046Z,979.80
2019-01-14T10:20:20.047Z,979.85
2019-01-14T10:21:01.546Z,979.94
2019-01-14T10:21:55.543Z,979.90
2019-01-14T10:22:55.547Z,979.95
2019-01-14T10:28:35.262Z,979.79
2019-01-14T10:29:35.277Z,979.77
2019-01-14T10:30:38.200Z,979.81
2019-01-14T10:31:34.889Z,979.86
2019-01-14T10:32:35.770Z,979.81
2019-01-14T10:33:37.203Z,979.79
2019-01-14T10:34:35.810Z,979.85
2019-01-14T10:37:11.495Z,979.85
2019-01-14T10:38:32.495Z,979.89
2019-01-14T10:39:11.497Z,979.80
2019-01-14T10:42:09.176Z,979.80
2019-01-14T10:43:04.227Z,979.77
2019-01-14T10:43:44.656Z,979.81
2019-01-14T10:44:43.722Z,979.81
2019-01-14T10:46:04.723Z,979.72
2019-01-14T10:46:45.194Z,979.82
2019-01-14T10:47:47.222Z,979.77
2019-01-14T10:48:44.226Z,979.77
2019-01-14T10:49:44.222Z,979.74
2019-01-14T10:50:44.222Z,979.79
2019-01-14T10:51:44.221Z,979.81
2019-01-14T10:52:48.221Z,979.75
2019-01-14T10:53:44.721Z,979.77
2019-01-14T10:54:44.721Z,979.86
2019-01-14T10:55:44.721Z,979.83
2019-01-14T10:58:19.947Z,979.84
2019-01-14T10:59:16.450Z,979.91
2019-01-14T11:00:16.951Z,979.87
2019-01-14T11:01:18.949Z,979.86
2019-01-14T11:02:37.958Z,979.85
2019-01-14T11:03:20.354Z,979.91
2019-01-14T11:04:37.553Z,979.87
2019-01-14T11:05:38.404Z,979.88
2019-01-14T11:08:10.415Z,979.85
2019-01-14T11:10:45.579Z,980.26
2019-01-14T11:11:23.927Z,980.20
2019-01-14T11:12:45.597Z,980.69
2019-01-14T11:13:24.587Z,980.01
2019-01-14T11:14:28.087Z,980.15
2019-01-14T11:17:10.938Z,981.19
2019-01-14T11:18:09.876Z,980.91
2019-01-14T11:18:56.949Z,980.64
2019-01-14T11:19:59.946Z,980.08
2019-01-14T11:20:59.443Z,981.12
2019-01-14T11:23:30.269Z,981.00
2019-01-14T11:24:28.802Z,980.35
2019-01-14T11:25:32.300Z,980.31
2019-01-14T11:28:00.458Z,979.90
2019-01-14T11:29:07.162Z,979.96
2019-01-14T11:31:56.840Z,980.47
2019-01-14T11:32:32.775Z,980.58
2019-01-14T11:33:32.790Z,980.36
2019-01-14T11:36:04.501Z,979.96
2019-01-14T11:37:28.440Z,979.96
2019-01-14T11:39:38.548Z,980.36
2019-01-14T11:44:03.794Z,979.88
2019-01-14T11:44:42.803Z,979.89
2019-01-14T11:45:42.829Z,979.89
2019-01-14T11:46:45.737Z,979.95
2019-01-14T11:47:49.003Z,980.13
2019-01-14T11:48:43.299Z,980.31
2019-01-14T11:49:42.647Z,980.31
2019-01-14T11:50:43.308Z,980.39
2019-01-14T11:52:04.801Z,980.06
2019-01-14T11:52:43.802Z,980.24
2019-01-14T11:54:07.251Z,980.30
2019-01-14T11:54:43.802Z,980.23
2019-01-14T11:56:04.798Z,980.26
2019-01-14T11:56:50.306Z,980.24
2019-01-14T11:57:46.305Z,979.98
2019-01-14T11:58:48.303Z,979.98
2019-01-14T11:59:44.303Z,980.18
2019-01-14T12:01:05.806Z,980.01
2019-01-14T12:03:17.166Z,980.00
2019-01-14T12:04:20.677Z,980.06
2019-01-14T12:05:17.188Z,980.17
2019-01-14T12:06:16.647Z,980.25
2019-01-14T12:07:17.671Z,980.01
2019-01-14T12:08:17.673Z,979.98
2019-01-14T12:09:23.173Z,980.04
2019-01-14T12:10:23.677Z,980.16
2019-01-14T12:11:24.172Z,980.32
2019-01-14T12:12:20.172Z,980.27
2019-01-14T12:13:39.178Z,980.23
2019-01-14T12:14:24.169Z,980.26
2019-01-14T12:15:38.750Z,980.20
2019-01-14T12:16:39.673Z,980.23
2019-01-14T12:18:50.035Z,980.24
2019-01-14T12:19:54.103Z,980.41
2019-01-14T12:20:50.040Z,980.25
2019-01-14T12:23:42.773Z,980.13
2019-01-14T12:24:23.215Z,980.29
2019-01-14T12:28:29.427Z,980.31
2019-01-14T12:31:03.943Z,980.56
2019-01-14T12:31:59.948Z,980.96
2019-01-14T12:33:00.682Z,980.63
2019-01-14T12:33:59.548Z,980.65
2019-01-14T12:35:00.455Z,980.82
2019-01-14T12:36:00.449Z,980.75
2019-01-14T12:38:56.346Z,980.95
2019-01-14T12:39:37.340Z,980.27
2019-01-14T12:40:56.343Z,980.28
2019-01-14T12:41:34.943Z,980.40
2019-01-14T12:42:39.342Z,980.85
2019-01-14T12:43:56.169Z,980.46
2019-01-14T12:44:35.850Z,980.46
2019-01-14T12:45:35.842Z,980.41
2019-01-14T12:46:35.440Z,980.58
2019-01-14T12:47:36.344Z,980.51
2019-01-14T12:48:39.343Z,980.90
2019-01-14T12:51:07.957Z,980.61
2019-01-14T12:52:07.990Z,980.62
2019-01-14T12:53:08.480Z,980.60
2019-01-14T12:54:11.961Z,980.68
2019-01-14T12:55:08.464Z,980.74
2019-01-14T12:56:08.465Z,980.80
2019-01-14T12:57:08.982Z,980.80
2019-01-14T12:58:08.204Z,980.88
2019-01-14T12:59:08.963Z,980.79
2019-01-14T13:00:12.962Z,980.74
2019-01-14T13:04:32.716Z,980.94
2019-01-14T13:08:19.236Z,980.60
2019-01-14T13:09:18.566Z,980.84
2019-01-14T13:12:20.997Z,980.94
2019-01-14T13:13:16.464Z,980.87
2019-01-14T13:14:15.008Z,981.11
2019-01-14T13:14:53.996Z,981.17
2019-01-14T13:17:30.590Z,980.92
2019-01-14T13:18:29.661Z,980.91
2019-01-14T13:19:29.141Z,980.98
2019-01-14T13:20:51.221Z,980.97
2019-01-14T13:21:33.628Z,980.95
2019-01-14T13:22:30.128Z,981.00
2019-01-14T13:23:32.315Z,981.10
2019-01-14T13:26:02.348Z,981.04
2019-01-14T13:27:05.727Z,981.06
2019-01-14T13:28:23.336Z,981.18
2019-01-14T13:29:02.837Z,981.07
2019-01-14T13:30:02.836Z,980.93
2019-01-14T13:31:02.843Z,980.86
2019-01-14T13:32:29.270Z,980.87
2019-01-14T13:34:55.584Z,980.95
2019-01-14T13:35:43.027Z,980.82
2019-01-14T13:36:34.596Z,980.76
2019-01-14T13:37:37.472Z,981.24
2019-01-14T13:38:35.093Z,981.46
2019-01-14T13:39:35.101Z,981.45
2019-01-14T13:40:35.114Z,981.12
2019-01-14T13:41:34.554Z,981.53
2019-01-14T13:42:59.620Z,981.40
2019-01-14T13:43:37.065Z,981.05
2019-01-14T13:44:35.591Z,981.22
2019-01-14T13:45:35.592Z,981.05
2019-01-14T13:46:35.063Z,981.19
2019-01-14T13:47:36.094Z,981.18
2019-01-14T13:49:14.592Z,981.09
2019-01-14T13:49:36.091Z,981.19
2019-01-14T13:50:35.567Z,981.24
2019-01-14T13:53:08.292Z,981.37
2019-01-14T13:54:32.802Z,981.32
2019-01-14T13:55:08.305Z,981.21
2019-01-14T13:58:01.023Z,981.26
2019-01-14T13:58:40.035Z,981.21
2019-01-14T13:59:45.529Z,981.19
2019-01-14T14:01:01.530Z,981.23
2019-01-14T14:01:40.529Z,981.31
2019-01-14T14:02:40.525Z,981.28
2019-01-14T14:05:16.255Z,981.18
2019-01-14T14:06:35.270Z,981.26
2019-01-14T14:07:12.262Z,981.21
2019-01-14T14:08:12.761Z,981.17
2019-01-14T14:09:12.765Z,981.26
2019-01-14T14:10:12.109Z,981.27
2019-01-14T14:11:37.266Z,981.37
2019-01-14T14:14:06.934Z,981.35
2019-01-14T14:14:44.500Z,981.34
2019-01-14T14:15:44.500Z,981.37
2019-01-14T14:16:48.496Z,981.49
2019-01-14T14:18:06.011Z,981.45
2019-01-14T14:18:44.999Z,981.45
2019-01-14T14:20:06.000Z,981.58
2019-01-14T14:22:20.230Z,981.60
2019-01-14T14:26:19.276Z,981.84
2019-01-14T14:27:23.502Z,981.85
2019-01-14T14:28:20.002Z,981.89
2019-01-14T14:29:20.497Z,981.89
2019-01-14T14:30:20.516Z,981.83
2019-01-14T14:31:20.512Z,981.85
2019-01-14T14:32:44.243Z,981.94
2019-01-14T14:33:21.029Z,981.81
2019-01-14T14:34:21.021Z,981.91